createdAt,value
2022-07-31T00:00:19.273Z,22.00
2022-07-31T00:02:46.674Z,21.95
2022-07-31T00:05:13.157Z,22.00
2022-07-31T00:07:39.850Z,22.01
2022-07-31T00:10:06.962Z,22.06
2022-07-31T00:12:34.854Z,21.98
2022-07-31T00:15:05.901Z,21.90
2022-07-31T00:17:32.659Z,21.96
2022-07-31T00:19:59.194Z,21.91
2022-07-31T00:22:25.844Z,21.93
2022-07-31T00:24:52.299Z,21.91
2022-07-31T00:27:18.755Z,21.90
2022-07-31T00:29:45.197Z,21.76
2022-07-31T00:32:11.623Z,21.69
2022-07-31T00:34:38.097Z,21.58
2022-07-31T00:37:05.044Z,21.58
2022-07-31T00:39:32.614Z,21.66
2022-07-31T00:41:59.213Z,21.70
2022-07-31T00:44:26.061Z,21.69
2022-07-31T00:46:52.904Z,21.63
2022-07-31T00:49:20.009Z,21.67
2022-07-31T00:51:47.064Z,21.59
2022-07-31T00:54:18.640Z,21.61
2022-07-31T00:56:49.885Z,21.63
2022-07-31T00:59:16.765Z,21.53
2022-07-31T01:01:51.046Z,21.48
2022-07-31T01:04:19.220Z,21.51
2022-07-31T01:06:46.592Z,21.61
2022-07-31T01:09:14.873Z,21.70
2022-07-31T01:11:50.929Z,21.76
2022-07-31T01:14:19.946Z,21.72
2022-07-31T01:16:48.097Z,21.80
2022-07-31T01:19:42.539Z,21.84
2022-07-31T01:22:45.561Z,21.89
2022-07-31T01:25:19.974Z,21.96
2022-07-31T01:28:04.348Z,21.84
2022-07-31T01:30:43.715Z,21.83
2022-07-31T01:33:14.654Z,21.93
2022-07-31T01:35:43.812Z,21.81
2022-07-31T01:38:14.343Z,21.83
2022-07-31T01:40:46.868Z,21.83
2022-07-31T01:43:19.771Z,21.74
2022-07-31T01:45:47.974Z,21.93
2022-07-31T01:48:15.605Z,21.78
2022-07-31T01:50:44.474Z,21.88
2022-07-31T01:53:13.967Z,21.85
2022-07-31T01:55:56.438Z,21.86
2022-07-31T01:58:30.334Z,21.84
2022-07-31T02:00:58.439Z,21.78
2022-07-31T02:03:43.765Z,21.72
2022-07-31T02:06:13.347Z,21.73
2022-07-31T02:08:40.015Z,21.71
2022-07-31T02:11:07.021Z,21.71
2022-07-31T02:13:35.948Z,21.69
2022-07-31T02:16:04.341Z,21.67
2022-07-31T02:18:33.155Z,21.69
2022-07-31T02:20:59.640Z,21.74
2022-07-31T02:23:26.176Z,21.82
2022-07-31T02:25:52.682Z,21.80
2022-07-31T02:28:20.469Z,21.81
2022-07-31T02:30:48.054Z,21.76
2022-07-31T02:33:19.023Z,21.73
2022-07-31T02:35:48.250Z,21.72
2022-07-31T02:38:17.136Z,21.73
2022-07-31T02:40:51.603Z,21.74
2022-07-31T02:43:18.848Z,21.76
2022-07-31T02:45:45.943Z,21.78
2022-07-31T02:48:12.485Z,21.86
2022-07-31T02:50:39.946Z,21.81
2022-07-31T02:53:06.751Z,21.77
2022-07-31T02:55:33.611Z,21.91
2022-07-31T02:58:02.032Z,21.91
2022-07-31T03:00:28.801Z,21.90
2022-07-31T03:02:56.550Z,21.92
2022-07-31T03:05:23.049Z,21.93
2022-07-31T03:07:49.507Z,21.85
2022-07-31T03:10:15.998Z,21.83
2022-07-31T03:12:44.884Z,21.72
2022-07-31T03:15:17.171Z,21.72
2022-07-31T03:17:44.701Z,21.70
2022-07-31T03:20:12.487Z,21.71
2022-07-31T03:22:39.945Z,21.73
2022-07-31T03:25:06.963Z,21.74
2022-07-31T03:27:33.581Z,21.71
2022-07-31T03:30:00.097Z,21.78
2022-07-31T03:32:26.535Z,21.72
2022-07-31T03:34:53.030Z,21.73
2022-07-31T03:37:19.464Z,21.64
2022-07-31T03:39:45.875Z,21.61
2022-07-31T03:42:18.580Z,21.66
2022-07-31T03:44:46.512Z,21.71
2022-07-31T03:47:13.086Z,21.73
2022-07-31T03:49:43.122Z,21.69
2022-07-31T03:52:12.319Z,21.61
2022-07-31T03:54:39.683Z,21.66
2022-07-31T03:57:08.002Z,21.60
2022-07-31T03:59:40.525Z,21.64
2022-07-31T04:02:14.947Z,21.65
2022-07-31T04:04:45.234Z,21.67
2022-07-31T04:07:11.726Z,21.66
2022-07-31T04:09:38.649Z,21.63
2022-07-31T04:12:06.263Z,21.70
2022-07-31T04:14:33.176Z,21.68
2022-07-31T04:16:59.724Z,21.83
2022-07-31T04:19:26.239Z,21.81
2022-07-31T04:21:52.709Z,21.94
2022-07-31T04:24:20.923Z,21.97
2022-07-31T04:26:49.346Z,21.89
2022-07-31T04:29:16.066Z,22.11
2022-07-31T04:31:42.681Z,22.08
2022-07-31T04:34:09.157Z,22.00
2022-07-31T04:36:35.618Z,22.01
2022-07-31T04:39:02.305Z,22.10
2022-07-31T04:41:28.944Z,22.13
2022-07-31T04:43:57.690Z,22.08
2022-07-31T04:46:24.524Z,22.12
2022-07-31T04:48:51.017Z,22.17
2022-07-31T04:51:18.846Z,22.28
2022-07-31T04:53:50.204Z,22.27
2022-07-31T04:56:36.210Z,22.30
2022-07-31T04:59:08.769Z,22.47
2022-07-31T05:01:35.906Z,22.55
2022-07-31T05:04:02.362Z,22.51
2022-07-31T05:06:35.622Z,22.51
2022-07-31T05:09:08.452Z,22.55
2022-07-31T05:11:36.299Z,22.61
2022-07-31T05:14:04.537Z,22.60
2022-07-31T05:16:31.926Z,22.53
2022-07-31T05:18:58.571Z,22.65
2022-07-31T05:21:28.411Z,22.64
2022-07-31T05:23:55.507Z,22.62
2022-07-31T05:26:22.787Z,22.64
2022-07-31T05:28:51.555Z,22.79
2022-07-31T05:31:19.944Z,22.80
2022-07-31T05:33:47.865Z,22.81
2022-07-31T05:36:14.967Z,22.87
2022-07-31T05:38:41.921Z,22.99
2022-07-31T05:41:09.162Z,23.10
2022-07-31T05:43:35.717Z,23.18
2022-07-31T05:46:03.132Z,23.50
2022-07-31T05:48:29.721Z,23.76
2022-07-31T05:50:56.200Z,23.95
2022-07-31T05:53:23.042Z,24.28
2022-07-31T05:55:50.155Z,24.64
2022-07-31T05:58:18.056Z,24.83
2022-07-31T06:00:46.653Z,25.00
2022-07-31T06:03:13.561Z,25.15
2022-07-31T06:05:40.947Z,25.21
2022-07-31T06:08:09.505Z,25.24
2022-07-31T06:10:37.443Z,25.33
2022-07-31T06:13:05.378Z,25.51
2022-07-31T06:15:36.101Z,25.68
2022-07-31T06:18:03.761Z,25.65
2022-07-31T06:20:30.441Z,25.67
2022-07-31T06:22:56.884Z,25.75
2022-07-31T06:25:24.270Z,25.78
2022-07-31T06:27:59.550Z,25.95
2022-07-31T06:30:27.789Z,25.87
2022-07-31T06:32:54.279Z,25.84
2022-07-31T06:35:20.916Z,25.85
2022-07-31T06:37:47.458Z,25.68
2022-07-31T06:40:14.471Z,25.77
2022-07-31T06:42:41.348Z,25.94
2022-07-31T06:45:08.824Z,26.13
2022-07-31T06:47:35.355Z,26.08
2022-07-31T06:50:01.991Z,26.12
2022-07-31T06:52:28.517Z,26.19
2022-07-31T06:54:54.948Z,26.24
2022-07-31T06:57:21.457Z,26.26
2022-07-31T06:59:48.390Z,26.32
2022-07-31T07:02:14.926Z,26.40
2022-07-31T07:04:56.326Z,26.53
2022-07-31T07:07:31.792Z,26.58
2022-07-31T07:09:58.827Z,26.59
2022-07-31T07:12:25.315Z,26.66
2022-07-31T07:14:53.627Z,26.80
2022-07-31T07:17:20.179Z,26.98
2022-07-31T07:19:46.771Z,26.96
2022-07-31T07:22:31.749Z,26.82
2022-07-31T07:24:59.680Z,26.85
2022-07-31T07:27:26.269Z,27.00
2022-07-31T07:29:52.860Z,27.14
2022-07-31T07:32:19.367Z,27.30
2022-07-31T07:34:45.855Z,27.27
2022-07-31T07:37:12.598Z,27.23
2022-07-31T07:39:39.150Z,27.20
2022-07-31T07:42:06.105Z,27.16
2022-07-31T07:44:33.042Z,27.09
2022-07-31T07:46:59.535Z,27.11
2022-07-31T07:49:26.020Z,27.02
2022-07-31T07:51:59.117Z,26.91
2022-07-31T07:54:27.089Z,27.00
2022-07-31T07:56:54.903Z,27.03
2022-07-31T07:59:21.609Z,27.10
2022-07-31T08:01:48.090Z,27.34
2022-07-31T08:04:14.743Z,27.51
2022-07-31T08:06:41.231Z,27.45
2022-07-31T08:09:07.811Z,27.66
2022-07-31T08:11:34.286Z,27.82
2022-07-31T08:14:00.718Z,28.10
2022-07-31T08:16:27.213Z,28.60
2022-07-31T08:18:54.754Z,28.63
2022-07-31T08:21:21.768Z,28.76
2022-07-31T08:23:48.230Z,28.52
2022-07-31T08:26:14.715Z,28.78
2022-07-31T08:28:41.515Z,29.01
2022-07-31T08:31:16.855Z,29.41
2022-07-31T08:33:43.310Z,29.55
2022-07-31T08:36:09.917Z,29.65
2022-07-31T08:38:36.948Z,29.45
2022-07-31T08:41:03.434Z,29.50
2022-07-31T08:44:02.667Z,29.46
2022-07-31T08:46:17.419Z,29.32
2022-07-31T08:48:45.491Z,29.23
2022-07-31T08:51:13.637Z,29.53
2022-07-31T08:53:42.524Z,30.01
2022-07-31T08:56:09.457Z,30.28
2022-07-31T08:58:39.247Z,30.63
2022-07-31T09:01:06.000Z,30.77
2022-07-31T09:03:34.591Z,30.48
2022-07-31T09:06:01.041Z,30.63
2022-07-31T09:08:27.515Z,30.57
2022-07-31T09:11:08.151Z,30.61
2022-07-31T09:13:37.590Z,30.74
2022-07-31T09:16:04.654Z,30.38
2022-07-31T09:18:31.128Z,30.36
2022-07-31T09:20:58.897Z,30.44
2022-07-31T09:23:27.759Z,30.21
2022-07-31T09:26:01.947Z,30.09
2022-07-31T09:28:37.343Z,29.93
2022-07-31T09:31:05.445Z,30.07
2022-07-31T09:33:32.640Z,30.02
2022-07-31T09:36:00.010Z,30.31
2022-07-31T09:38:35.408Z,30.38
2022-07-31T09:41:56.887Z,30.66
2022-07-31T09:44:09.403Z,30.77
2022-07-31T09:46:46.980Z,30.43
2022-07-31T09:49:14.326Z,30.37
2022-07-31T09:51:45.154Z,30.33
2022-07-31T09:54:25.831Z,30.03
2022-07-31T09:56:52.337Z,30.25
2022-07-31T09:59:19.158Z,30.43
2022-07-31T10:01:50.640Z,30.33
2022-07-31T10:04:18.551Z,30.45
2022-07-31T10:06:49.491Z,30.55
2022-07-31T10:09:18.693Z,30.72
2022-07-31T10:11:46.614Z,30.84
2022-07-31T10:14:22.146Z,30.73
2022-07-31T10:16:49.122Z,30.96
2022-07-31T10:19:16.292Z,31.08
2022-07-31T10:21:49.755Z,31.04
2022-07-31T10:24:19.855Z,30.98
2022-07-31T10:27:00.225Z,31.05
2022-07-31T10:29:27.701Z,31.07
2022-07-31T10:31:59.252Z,31.10
2022-07-31T10:34:26.744Z,31.39
2022-07-31T10:36:56.035Z,31.40
2022-07-31T10:39:37.846Z,31.70
2022-07-31T10:42:25.441Z,32.26
2022-07-31T10:45:09.578Z,32.30
2022-07-31T10:47:36.858Z,32.17
2022-07-31T10:50:04.572Z,32.19
2022-07-31T10:52:32.674Z,32.06
2022-07-31T10:55:01.595Z,32.33
2022-07-31T10:57:33.331Z,32.12
2022-07-31T11:00:13.417Z,32.50
2022-07-31T11:02:39.950Z,32.85
2022-07-31T11:05:13.911Z,32.86
2022-07-31T11:07:45.508Z,32.92
2022-07-31T11:10:20.870Z,33.25
2022-07-31T11:12:59.904Z,33.52
2022-07-31T11:15:26.971Z,33.19
2022-07-31T11:18:22.236Z,32.77
2022-07-31T11:20:39.935Z,32.45
2022-07-31T11:23:10.480Z,32.59
2022-07-31T11:25:37.631Z,32.74
2022-07-31T11:28:24.528Z,32.51
2022-07-31T11:30:56.379Z,32.87
2022-07-31T11:33:43.648Z,32.88
2022-07-31T11:36:21.171Z,33.09
2022-07-31T11:38:49.798Z,32.96
2022-07-31T11:41:17.177Z,33.06
2022-07-31T11:43:51.040Z,33.06
2022-07-31T11:46:28.577Z,33.12
2022-07-31T11:48:55.660Z,32.83
2022-07-31T11:51:22.635Z,32.62
2022-07-31T11:53:57.019Z,32.12
2022-07-31T11:56:25.807Z,31.94
2022-07-31T11:58:57.065Z,31.61
2022-07-31T12:01:29.060Z,31.63
2022-07-31T12:03:57.621Z,31.66
2022-07-31T12:06:36.517Z,31.74
2022-07-31T12:09:03.347Z,31.45
2022-07-31T12:11:29.811Z,31.43
2022-07-31T12:13:56.560Z,31.32
2022-07-31T12:16:23.072Z,31.28
2022-07-31T12:19:00.428Z,31.01
2022-07-31T12:21:33.234Z,31.08
2022-07-31T12:24:00.760Z,31.11
2022-07-31T12:26:29.355Z,31.08
2022-07-31T12:29:05.111Z,30.63
2022-07-31T12:31:47.260Z,30.34
2022-07-31T12:34:38.171Z,30.33
2022-07-31T12:37:09.932Z,30.25
2022-07-31T12:39:59.834Z,30.11
2022-07-31T12:42:39.073Z,29.96
2022-07-31T12:45:18.333Z,29.95
2022-07-31T12:47:52.149Z,29.98
2022-07-31T12:50:23.107Z,30.19
2022-07-31T12:52:49.565Z,30.48
2022-07-31T12:55:17.306Z,30.56
2022-07-31T12:57:51.217Z,30.60
2022-07-31T13:00:20.158Z,30.63
2022-07-31T13:02:46.659Z,30.45
2022-07-31T13:05:13.135Z,30.76
2022-07-31T13:07:39.646Z,30.85
2022-07-31T13:10:17.568Z,30.92
2022-07-31T13:12:50.409Z,30.62
2022-07-31T13:15:18.059Z,30.77
2022-07-31T13:17:48.226Z,30.64
2022-07-31T13:20:18.256Z,30.50
2022-07-31T13:22:44.755Z,29.96
2022-07-31T13:25:11.214Z,29.83
2022-07-31T13:27:37.802Z,29.62
2022-07-31T13:30:05.003Z,29.25
2022-07-31T13:32:31.981Z,28.84
2022-07-31T13:35:26.510Z,28.52
2022-07-31T13:37:46.681Z,28.48
2022-07-31T13:40:13.605Z,28.53
2022-07-31T13:42:40.054Z,28.47
2022-07-31T13:45:08.691Z,28.35
2022-07-31T13:47:50.705Z,27.88
2022-07-31T13:50:18.570Z,27.48
2022-07-31T13:52:44.987Z,27.52
2022-07-31T13:55:11.425Z,27.32
2022-07-31T13:57:37.951Z,27.34
2022-07-31T14:00:04.927Z,27.51
2022-07-31T14:02:31.479Z,27.54
2022-07-31T14:04:58.204Z,27.74
2022-07-31T14:07:45.617Z,27.90
2022-07-31T14:10:11.709Z,28.07
2022-07-31T14:12:39.586Z,28.15
2022-07-31T14:15:07.473Z,28.08
2022-07-31T14:17:33.933Z,28.11
2022-07-31T14:20:00.357Z,28.19
2022-07-31T14:22:26.828Z,28.33
2022-07-31T14:24:53.711Z,28.28
2022-07-31T14:27:20.790Z,28.18
2022-07-31T14:29:47.949Z,28.18
2022-07-31T14:32:14.414Z,28.09
2022-07-31T14:34:40.859Z,27.87
2022-07-31T14:37:07.747Z,27.79
2022-07-31T14:39:34.358Z,27.72
2022-07-31T14:42:00.801Z,27.71
2022-07-31T14:44:28.845Z,27.55
2022-07-31T14:46:55.709Z,27.38
2022-07-31T14:49:22.368Z,27.25
2022-07-31T14:51:48.974Z,27.15
2022-07-31T14:54:15.440Z,27.15
2022-07-31T14:59:29.201Z,27.06
2022-07-31T15:01:55.815Z,27.10
2022-07-31T15:04:22.368Z,27.14
2022-07-31T15:06:56.313Z,27.03
2022-07-31T15:09:30.915Z,26.95
2022-07-31T15:12:01.107Z,26.97
2022-07-31T15:14:29.588Z,26.82
2022-07-31T15:16:56.195Z,26.64
2022-07-31T15:19:22.635Z,26.61
2022-07-31T15:22:09.500Z,26.27
2022-07-31T15:24:35.818Z,26.18
2022-07-31T15:27:02.734Z,26.09
2022-07-31T15:30:05.553Z,26.04
2022-07-31T15:32:15.908Z,25.61
2022-07-31T15:34:42.365Z,25.35
2022-07-31T15:37:08.828Z,25.30
2022-07-31T15:39:35.267Z,25.33
2022-07-31T15:42:02.341Z,25.26
2022-07-31T15:44:29.033Z,25.19
2022-07-31T15:46:55.523Z,25.18
2022-07-31T15:49:22.047Z,25.08
2022-07-31T15:51:48.530Z,24.97
2022-07-31T15:54:15.287Z,24.88
2022-07-31T15:56:41.755Z,24.93
2022-07-31T15:59:08.194Z,24.93
2022-07-31T16:01:34.679Z,24.86
2022-07-31T16:04:01.336Z,24.68
2022-07-31T16:06:32.169Z,24.67
2022-07-31T16:08:59.343Z,24.45
2022-07-31T16:12:04.387Z,24.48
2022-07-31T16:14:12.229Z,24.33
2022-07-31T16:16:41.967Z,24.40
2022-07-31T16:19:10.664Z,24.13
2022-07-31T16:21:40.607Z,23.92
2022-07-31T16:24:07.153Z,23.91
2022-07-31T16:26:34.275Z,23.82
2022-07-31T16:29:00.693Z,23.91
2022-07-31T16:31:30.105Z,23.86
2022-07-31T16:33:57.266Z,23.81
2022-07-31T16:36:24.856Z,23.84
2022-07-31T16:39:17.709Z,23.86
2022-07-31T16:41:38.861Z,23.94
2022-07-31T16:44:21.218Z,23.92
2022-07-31T16:46:51.387Z,23.86
2022-07-31T16:49:35.419Z,23.85
2022-07-31T16:52:04.625Z,23.93
2022-07-31T16:54:31.111Z,23.78
2022-07-31T16:56:57.554Z,23.74
2022-07-31T16:59:23.997Z,23.63
2022-07-31T17:01:57.433Z,23.62
2022-07-31T17:04:27.284Z,23.61
2022-07-31T17:06:53.853Z,23.72
2022-07-31T17:09:20.414Z,23.93
2022-07-31T17:11:48.489Z,24.01
2022-07-31T17:14:16.959Z,24.13
2022-07-31T17:16:47.202Z,24.28
2022-07-31T17:19:15.793Z,24.35
2022-07-31T17:21:44.571Z,24.17
2022-07-31T17:24:15.672Z,24.14
2022-07-31T17:26:42.898Z,24.15
2022-07-31T17:29:09.349Z,24.29
2022-07-31T17:31:35.768Z,24.26
2022-07-31T17:34:05.965Z,24.29
2022-07-31T17:36:35.874Z,24.36
2022-07-31T17:39:02.469Z,24.38
2022-07-31T17:41:29.044Z,24.46
2022-07-31T17:43:55.534Z,24.56
2022-07-31T17:46:29.290Z,24.58
2022-07-31T17:49:03.392Z,24.64
2022-07-31T17:51:29.974Z,24.64
2022-07-31T17:53:59.232Z,24.71
2022-07-31T17:56:26.657Z,24.71
2022-07-31T17:58:53.211Z,24.49
2022-07-31T18:01:19.752Z,24.50
2022-07-31T18:03:46.322Z,24.43
2022-07-31T18:06:12.724Z,24.35
2022-07-31T18:08:39.166Z,24.20
2022-07-31T18:11:06.538Z,24.30
2022-07-31T18:13:39.090Z,24.19
2022-07-31T18:16:14.411Z,24.22
2022-07-31T18:18:40.831Z,24.36
2022-07-31T18:21:07.311Z,24.33
2022-07-31T18:23:33.737Z,24.28
2022-07-31T18:26:00.423Z,24.35
2022-07-31T18:28:26.941Z,24.32
2022-07-31T18:30:53.657Z,24.27
2022-07-31T18:33:20.133Z,24.30
2022-07-31T18:35:46.633Z,24.21
2022-07-31T18:38:13.109Z,24.13
2022-07-31T18:40:39.572Z,24.11
2022-07-31T18:43:06.188Z,24.23
2022-07-31T18:45:32.940Z,24.10
2022-07-31T18:47:59.442Z,23.99
2022-07-31T18:50:59.455Z,23.93
2022-07-31T18:53:13.156Z,24.00
2022-07-31T18:55:39.616Z,23.98
2022-07-31T18:58:08.015Z,23.97
2022-07-31T19:00:34.546Z,23.92
2022-07-31T19:03:01.021Z,23.92
2022-07-31T19:05:27.955Z,23.90
2022-07-31T19:07:54.365Z,23.92
2022-07-31T19:10:29.545Z,23.93
2022-07-31T19:12:57.938Z,23.89
2022-07-31T19:15:24.450Z,23.82
2022-07-31T19:17:50.940Z,23.81
2022-07-31T19:20:56.391Z,23.90
2022-07-31T19:23:04.228Z,23.96
2022-07-31T19:26:02.611Z,23.88
2022-07-31T19:28:20.768Z,23.78
2022-07-31T19:30:53.708Z,23.65
2022-07-31T19:33:20.285Z,23.68
2022-07-31T19:35:58.517Z,23.68
2022-07-31T19:38:28.204Z,23.64
2022-07-31T19:40:54.702Z,23.49
2022-07-31T19:43:21.341Z,23.60
2022-07-31T19:46:09.786Z,23.65
2022-07-31T19:48:35.878Z,23.50
2022-07-31T19:51:02.518Z,23.49
2022-07-31T19:53:28.955Z,23.46
2022-07-31T19:55:55.472Z,23.34
2022-07-31T19:58:22.004Z,23.39
2022-07-31T20:00:48.453Z,23.37
2022-07-31T20:03:14.949Z,23.42
2022-07-31T20:05:41.517Z,23.42
2022-07-31T20:08:07.990Z,23.38
2022-07-31T20:10:34.471Z,23.39
2022-07-31T20:13:00.896Z,23.45
2022-07-31T20:15:27.554Z,23.41
2022-07-31T20:18:26.719Z,23.35
2022-07-31T20:20:57.038Z,23.42
2022-07-31T20:23:24.037Z,23.36
2022-07-31T20:25:50.672Z,23.53
2022-07-31T20:28:17.191Z,23.44
2022-07-31T20:30:43.715Z,23.43
2022-07-31T20:33:11.363Z,23.59
2022-07-31T20:35:47.969Z,23.60
2022-07-31T20:38:25.471Z,23.66
2022-07-31T20:40:55.444Z,23.76
2022-07-31T20:43:23.988Z,23.73
2022-07-31T20:45:51.529Z,23.78
2022-07-31T20:48:17.985Z,23.76
2022-07-31T20:50:47.831Z,23.71
2022-07-31T20:53:14.876Z,23.74
2022-07-31T20:55:41.411Z,23.68
2022-07-31T20:58:07.869Z,23.65
2022-07-31T21:00:38.062Z,23.49
2022-07-31T21:03:05.816Z,23.60
2022-07-31T21:05:32.265Z,23.62
2022-07-31T21:07:58.786Z,23.60
2022-07-31T21:10:29.543Z,23.68
2022-07-31T21:12:57.267Z,23.72
2022-07-31T21:15:41.074Z,23.77
2022-07-31T21:18:11.157Z,23.79
2022-07-31T21:20:51.066Z,23.63
2022-07-31T21:23:23.938Z,23.65
2022-07-31T21:25:51.784Z,23.75
2022-07-31T21:28:18.703Z,23.70
2022-07-31T21:30:45.810Z,23.73
2022-07-31T21:33:12.305Z,23.91
2022-07-31T21:35:39.971Z,23.77
2022-07-31T21:38:10.356Z,23.77
2022-07-31T21:40:38.843Z,23.79
2022-07-31T21:43:05.856Z,23.83
2022-07-31T21:45:48.976Z,23.72
2022-07-31T21:48:19.793Z,23.69
2022-07-31T21:50:46.884Z,23.68
2022-07-31T21:53:14.108Z,23.70
2022-07-31T21:55:40.828Z,23.73
2022-07-31T21:58:08.286Z,23.70
2022-07-31T22:00:34.855Z,23.65
2022-07-31T22:03:02.926Z,23.58
2022-07-31T22:05:49.102Z,23.40
2022-07-31T22:08:15.628Z,23.39
2022-07-31T22:10:42.144Z,23.43
2022-07-31T22:13:09.042Z,23.41
2022-07-31T22:15:58.130Z,23.32
2022-07-31T22:18:22.150Z,23.35
2022-07-31T22:20:48.844Z,23.42
2022-07-31T22:23:15.554Z,23.43
2022-07-31T22:25:42.847Z,23.44
2022-07-31T22:28:09.352Z,23.30
2022-07-31T22:30:35.877Z,23.36
2022-07-31T22:33:02.468Z,23.38
2022-07-31T22:35:30.440Z,23.36
2022-07-31T22:37:57.018Z,23.40
2022-07-31T22:40:24.301Z,23.40
2022-07-31T22:42:57.415Z,23.33
2022-07-31T22:45:24.708Z,23.30
2022-07-31T22:47:51.560Z,23.29
2022-07-31T22:50:18.238Z,23.39
2022-07-31T22:52:44.703Z,23.50
2022-07-31T22:55:11.668Z,23.38
2022-07-31T22:57:38.376Z,23.38
2022-07-31T23:00:07.753Z,23.46
2022-07-31T23:02:34.325Z,23.34
2022-07-31T23:05:00.852Z,23.51
2022-07-31T23:07:27.344Z,23.51
2022-07-31T23:09:53.788Z,23.62
2022-07-31T23:12:20.205Z,23.48
2022-07-31T23:14:46.661Z,23.57
2022-07-31T23:17:23.354Z,23.67
2022-07-31T23:19:54.045Z,23.61
2022-07-31T23:22:33.565Z,23.50
2022-07-31T23:25:04.999Z,23.49
2022-07-31T23:27:32.495Z,23.48
2022-07-31T23:29:59.483Z,23.38
2022-07-31T23:32:26.956Z,23.33
2022-07-31T23:34:53.533Z,23.43
2022-07-31T23:37:20.097Z,23.34
2022-07-31T23:39:46.753Z,23.33
2022-07-31T23:42:31.743Z,23.36
2022-07-31T23:44:58.160Z,23.40
2022-07-31T23:47:24.873Z,23.38
2022-07-31T23:50:10.811Z,23.33
2022-07-31T23:52:37.290Z,23.23
2022-07-31T23:55:03.799Z,23.13
2022-07-31T23:57:34.515Z,23.31
